sensor_id;sensor_type;location;lat;lon;timestamp;pressure;altitude;pressure_sealevel;temperature;humidity
47670;BME280;33408;52.062;11.722;2023-03-01T00:01:35;102710.38;;;-1.89;100.00
47670;BME280;33408;52.062;11.722;2023-03-01T00:04:02;102709.97;;;-1.95;100.00
47670;BME280;33408;52.062;11.722;2023-03-01T00:06:29;102712.75;;;-2.30;100.00
47670;BME280;33408;52.062;11.722;2023-03-01T00:08:57;102713.97;;;-2.12;100.00
47670;BME280;33408;52.062;11.722;2023-03-01T00:11:25;102712.13;;;-2.01;100.00
47670;BME280;33408;52.062;11.722;2023-03-01T00:13:54;102715.66;;;-1.99;100.00
47670;BME280;33408;52.062;11.722;2023-03-01T00:16:24;102709.00;;;-2.10;100.00
47670;BME280;33408;52.062;11.722;2023-03-01T00:18:51;102715.84;;;-2.09;100.00
47670;BME280;33408;52.062;11.722;2023-03-01T00:21:20;102712.81;;;-2.17;100.00
47670;BME280;33408;52.062;11.722;2023-03-01T00:23:47;102709.88;;;-2.10;100.00
47670;BME280;33408;52.062;11.722;2023-03-01T00:26:17;102705.38;;;-2.14;100.00
47670;BME280;33408;52.062;11.722;2023-03-01T00:28:44;102709.56;;;-2.14;100.00
47670;BME280;33408;52.062;11.722;2023-03-01T00:31:13;102704.28;;;-2.17;100.00
47670;BME280;33408;52.062;11.722;2023-03-01T00:33:40;102708.13;;;-1.97;100.00
47670;BME280;33408;52.062;11.722;2023-03-01T00:36:08;102717.78;;;-2.18;100.00
47670;BME280;33408;52.062;11.722;2023-03-01T00:38:35;102715.03;;;-2.22;100.00
47670;BME280;33408;52.062;11.722;2023-03-01T00:41:05;102711.78;;;-2.32;100.00
47670;BME280;33408;52.062;11.722;2023-03-01T00:43:34;102708.38;;;-2.33;100.00
47670;BME280;33408;52.062;11.722;2023-03-01T00:46:02;102706.03;;;-2.30;100.00
47670;BME280;33408;52.062;11.722;2023-03-01T00:48:29;102709.03;;;-2.35;100.00
47670;BME280;33408;52.062;11.722;2023-03-01T00:50:56;102704.25;;;-2.44;100.00
47670;BME280;33408;52.062;11.722;2023-03-01T00:53:22;102699.94;;;-2.45;100.00
47670;BME280;33408;52.062;11.722;2023-03-01T00:55:49;102704.03;;;-2.47;100.00
47670;BME280;33408;52.062;11.722;2023-03-01T00:58:15;102702.47;;;-2.45;100.00
47670;BME280;33408;52.062;11.722;2023-03-01T01:00:43;102702.84;;;-2.52;100.00
47670;BME280;33408;52.062;11.722;2023-03-01T01:03:10;102697.66;;;-2.54;100.00
47670;BME280;33408;52.062;11.722;2023-03-01T01:05:36;102696.59;;;-2.58;100.00
47670;BME280;33408;52.062;11.722;2023-03-01T01:08:03;102684.16;;;-2.53;100.00
47670;BME280;33408;52.062;11.722;2023-03-01T01:10:29;102680.41;;;-2.46;100.00
47670;BME280;33408;52.062;11.722;2023-03-01T01:12:56;102672.28;;;-2.54;100.00
47670;BME280;33408;52.062;11.722;2023-03-01T01:15:23;102678.22;;;-2.53;100.00
47670;BME280;33408;52.062;11.722;2023-03-01T01:17:51;102668.66;;;-2.58;100.00
47670;BME280;33408;52.062;11.722;2023-03-01T01:20:18;102660.72;;;-2.62;100.00
47670;BME280;33408;52.062;11.722;2023-03-01T01:22:44;102658.19;;;-2.62;100.00
47670;BME280;33408;52.062;11.722;2023-03-01T01:25:11;102665.91;;;-2.61;100.00
47670;BME280;33408;52.062;11.722;2023-03-01T01:27:37;102650.97;;;-2.56;100.00
47670;BME280;33408;52.062;11.722;2023-03-01T01:30:05;102645.50;;;-2.62;100.00
47670;BME280;33408;52.062;11.722;2023-03-01T01:32:32;102650.47;;;-2.64;100.00
47670;BME280;33408;52.062;11.722;2023-03-01T01:34:59;102649.25;;;-2.69;100.00
47670;BME280;33408;52.062;11.722;2023-03-01T01:37:26;102648.28;;;-2.71;100.00
47670;BME280;33408;52.062;11.722;2023-03-01T01:39:56;102647.22;;;-2.75;100.00
47670;BME280;33408;52.062;11.722;2023-03-01T01:42:23;102647.38;;;-2.85;100.00
47670;BME280;33408;52.062;11.722;2023-03-01T01:45:24;102640.47;;;-2.74;100.00
47670;BME280;33408;52.062;11.722;2023-03-01T01:47:52;102641.50;;;-2.84;100.00
47670;BME280;33408;52.062;11.722;2023-03-01T01:50:22;102641.28;;;-2.75;100.00
47670;BME280;33408;52.062;11.722;2023-03-01T01:53:16;102634.63;;;-2.73;100.00
47670;BME280;33408;52.062;11.722;2023-03-01T01:56:12;102626.41;;;-2.69;100.00
47670;BME280;33408;52.062;11.722;2023-03-01T01:58:41;102625.84;;;-2.78;100.00
47670;BME280;33408;52.062;11.722;2023-03-01T02:01:10;102630.94;;;-2.90;100.00
47670;BME280;33408;52.062;11.722;2023-03-01T02:03:39;102626.97;;;-2.86;100.00
47670;BME280;33408;52.062;11.722;2023-03-01T02:06:18;102629.66;;;-2.97;100.00
47670;BME280;33408;52.062;11.722;2023-03-01T02:08:47;102637.47;;;-2.94;100.00
47670;BME280;33408;52.062;11.722;2023-03-01T02:11:17;102633.91;;;-2.84;100.00
47670;BME280;33408;52.062;11.722;2023-03-01T02:13:44;102628.25;;;-3.05;100.00
47670;BME280;33408;52.062;11.722;2023-03-01T02:16:14;102634.41;;;-3.01;100.00
47670;BME280;33408;52.062;11.722;2023-03-01T02:18:42;102635.63;;;-2.96;100.00
47670;BME280;33408;52.062;11.722;2023-03-01T02:21:20;102640.81;;;-2.95;100.00
47670;BME280;33408;52.062;11.722;2023-03-01T02:23:52;102636.19;;;-3.00;100.00
47670;BME280;33408;52.062;11.722;2023-03-01T02:26:26;102641.19;;;-2.88;100.00
47670;BME280;33408;52.062;11.722;2023-03-01T02:28:58;102639.25;;;-2.92;100.00
47670;BME280;33408;52.062;11.722;2023-03-01T02:31:25;102620.03;;;-3.14;100.00
47670;BME280;33408;52.062;11.722;2023-03-01T02:34:13;102633.13;;;-3.08;100.00
47670;BME280;33408;52.062;11.722;2023-03-01T02:36:43;102635.44;;;-2.99;100.00
47670;BME280;33408;52.062;11.722;2023-03-01T02:39:15;102626.91;;;-3.00;100.00
47670;BME280;33408;52.062;11.722;2023-03-01T02:41:46;102628.84;;;-3.09;100.00
47670;BME280;33408;52.062;11.722;2023-03-01T02:44:15;102625.72;;;-3.05;100.00
47670;BME280;33408;52.062;11.722;2023-03-01T02:46:43;102623.56;;;-3.12;100.00
47670;BME280;33408;52.062;11.722;2023-03-01T02:49:22;102618.09;;;-3.30;100.00
47670;BME280;33408;52.062;11.722;2023-03-01T02:51:59;102618.09;;;-3.30;100.00
47670;BME280;33408;52.062;11.722;2023-03-01T02:54:35;102607.09;;;-3.31;100.00
47670;BME280;33408;52.062;11.722;2023-03-01T02:57:03;102605.50;;;-3.17;100.00
47670;BME280;33408;52.062;11.722;2023-03-01T02:59:32;102603.09;;;-3.27;100.00
47670;BME280;33408;52.062;11.722;2023-03-01T03:02:04;102613.66;;;-3.21;100.00
47670;BME280;33408;52.062;11.722;2023-03-01T03:04:31;102606.84;;;-3.22;100.00
47670;BME280;33408;52.062;11.722;2023-03-01T03:06:57;102608.69;;;-3.19;100.00
47670;BME280;33408;52.062;11.722;2023-03-01T03:09:24;102608.16;;;-3.27;100.00
47670;BME280;33408;52.062;11.722;2023-03-01T03:11:50;102616.88;;;-3.23;100.00
47670;BME280;33408;52.062;11.722;2023-03-01T03:14:17;102620.13;;;-3.38;100.00
47670;BME280;33408;52.062;11.722;2023-03-01T03:16:46;102624.63;;;-3.34;100.00
47670;BME280;33408;52.062;11.722;2023-03-01T03:19:13;102615.47;;;-3.32;100.00
47670;BME280;33408;52.062;11.722;2023-03-01T03:21:41;102612.16;;;-3.31;100.00
47670;BME280;33408;52.062;11.722;2023-03-01T03:24:08;102616.56;;;-3.28;100.00
47670;BME280;33408;52.062;11.722;2023-03-01T03:26:36;102626.00;;;-3.14;100.00
47670;BME280;33408;52.062;11.722;2023-03-01T03:29:02;102622.50;;;-3.27;100.00
47670;BME280;33408;52.062;11.722;2023-03-01T03:31:29;102620.72;;;-3.28;100.00
47670;BME280;33408;52.062;11.722;2023-03-01T03:33:57;102625.81;;;-3.28;100.00
47670;BME280;33408;52.062;11.722;2023-03-01T03:36:24;102633.09;;;-3.21;100.00
47670;BME280;33408;52.062;11.722;2023-03-01T03:38:51;102624.00;;;-3.43;100.00
47670;BME280;33408;52.062;11.722;2023-03-01T03:41:18;102625.63;;;-3.43;100.00
47670;BME280;33408;52.062;11.722;2023-03-01T03:43:44;102624.72;;;-3.57;100.00
47670;BME280;33408;52.062;11.722;2023-03-01T03:46:12;102618.72;;;-3.46;100.00
47670;BME280;33408;52.062;11.722;2023-03-01T03:48:40;102614.75;;;-3.54;100.00
47670;BME280;33408;52.062;11.722;2023-03-01T03:51:09;102616.09;;;-3.47;100.00
47670;BME280;33408;52.062;11.722;2023-03-01T03:53:36;102613.94;;;-3.41;100.00
47670;BME280;33408;52.062;11.722;2023-03-01T03:56:03;102604.22;;;-3.60;100.00
47670;BME280;33408;52.062;11.722;2023-03-01T03:58:30;102603.94;;;-3.52;100.00
47670;BME280;33408;52.062;11.722;2023-03-01T04:00:57;102598.56;;;-3.56;100.00
47670;BME280;33408;52.062;11.722;2023-03-01T04:03:25;102601.84;;;-3.45;100.00
47670;BME280;33408;52.062;11.722;2023-03-01T04:05:52;102599.03;;;-3.62;100.00
47670;BME280;33408;52.062;11.722;2023-03-01T04:08:21;102598.94;;;-3.63;100.00
47670;BME280;33408;52.062;11.722;2023-03-01T04:10:49;102604.69;;;-3.90;100.00
47670;BME280;33408;52.062;11.722;2023-03-01T04:13:18;102607.00;;;-3.81;100.00
47670;BME280;33408;52.062;11.722;2023-03-01T04:15:46;102608.78;;;-4.04;100.00
47670;BME280;33408;52.062;11.722;2023-03-01T04:18:13;102608.09;;;-3.77;100.00
47670;BME280;33408;52.062;11.722;2023-03-01T04:20:41;102611.31;;;-3.80;100.00
47670;BME280;33408;52.062;11.722;2023-03-01T04:23:09;102609.72;;;-3.66;100.00
47670;BME280;33408;52.062;11.722;2023-03-01T04:25:45;102611.94;;;-3.71;100.00
47670;BME280;33408;52.062;11.722;2023-03-01T04:28:15;102612.41;;;-3.76;100.00
47670;BME280;33408;52.062;11.722;2023-03-01T04:30:41;102612.50;;;-3.75;100.00
47670;BME280;33408;52.062;11.722;2023-03-01T04:33:09;102609.06;;;-3.63;100.00
47670;BME280;33408;52.062;11.722;2023-03-01T04:35:37;102611.50;;;-3.65;100.00
47670;BME280;33408;52.062;11.722;2023-03-01T04:38:04;102601.09;;;-3.56;100.00
47670;BME280;33408;52.062;11.722;2023-03-01T04:40:31;102599.13;;;-3.60;100.00
47670;BME280;33408;52.062;11.722;2023-03-01T04:42:59;102602.22;;;-3.64;100.00
47670;BME280;33408;52.062;11.722;2023-03-01T04:45:25;102598.22;;;-3.61;100.00
47670;BME280;33408;52.062;11.722;2023-03-01T04:47:53;102601.13;;;-3.68;100.00
47670;BME280;33408;52.062;11.722;2023-03-01T04:50:20;102605.50;;;-3.66;100.00
47670;BME280;33408;52.062;11.722;2023-03-01T04:52:49;102602.00;;;-3.68;100.00
47670;BME280;33408;52.062;11.722;2023-03-01T04:55:15;102602.59;;;-3.72;100.00
47670;BME280;33408;52.062;11.722;2023-03-01T04:57:42;102606.19;;;-3.68;100.00
47670;BME280;33408;52.062;11.722;2023-03-01T05:00:13;102606.03;;;-3.83;100.00
47670;BME280;33408;52.062;11.722;2023-03-01T05:02:50;102604.03;;;-3.87;100.00
47670;BME280;33408;52.062;11.722;2023-03-01T05:05:23;102597.28;;;-3.75;100.00
47670;BME280;33408;52.062;11.722;2023-03-01T05:07:52;102590.13;;;-3.80;100.00
47670;BME280;33408;52.062;11.722;2023-03-01T05:10:19;102591.56;;;-3.84;100.00
47670;BME280;33408;52.062;11.722;2023-03-01T05:12:46;102602.59;;;-3.72;100.00
47670;BME280;33408;52.062;11.722;2023-03-01T05:15:14;102599.84;;;-3.75;100.00
47670;BME280;33408;52.062;11.722;2023-03-01T05:17:41;102603.88;;;-3.77;100.00
47670;BME280;33408;52.062;11.722;2023-03-01T05:20:09;102598.94;;;-3.75;100.00
47670;BME280;33408;52.062;11.722;2023-03-01T05:22:36;102603.16;;;-3.88;100.00
47670;BME280;33408;52.062;11.722;2023-03-01T05:25:03;102596.22;;;-3.90;100.00
47670;BME280;33408;52.062;11.722;2023-03-01T05:27:30;102592.44;;;-3.83;100.00
47670;BME280;33408;52.062;11.722;2023-03-01T05:29:56;102597.06;;;-3.90;100.00
47670;BME280;33408;52.062;11.722;2023-03-01T05:32:24;102595.53;;;-3.99;100.00
47670;BME280;33408;52.062;11.722;2023-03-01T05:34:51;102596.31;;;-3.89;100.00
47670;BME280;33408;52.062;11.722;2023-03-01T05:37:19;102599.53;;;-4.03;100.00
47670;BME280;33408;52.062;11.722;2023-03-01T05:39:46;102586.31;;;-3.99;100.00
47670;BME280;33408;52.062;11.722;2023-03-01T05:42:15;102587.41;;;-3.95;100.00
47670;BME280;33408;52.062;11.722;2023-03-01T05:44:42;102585.09;;;-3.92;100.00
47670;BME280;33408;52.062;11.722;2023-03-01T05:47:08;102578.69;;;-3.87;100.00
47670;BME280;33408;52.062;11.722;2023-03-01T05:49:36;102577.94;;;-3.86;100.00
47670;BME280;33408;52.062;11.722;2023-03-01T05:52:03;102575.72;;;-3.93;100.00
47670;BME280;33408;52.062;11.722;2023-03-01T05:54:30;102579.47;;;-4.00;100.00
47670;BME280;33408;52.062;11.722;2023-03-01T05:56:56;102578.81;;;-3.97;100.00
47670;BME280;33408;52.062;11.722;2023-03-01T05:59:23;102576.28;;;-3.97;100.00
47670;BME280;33408;52.062;11.722;2023-03-01T06:01:49;102579.16;;;-3.93;100.00
47670;BME280;33408;52.062;11.722;2023-03-01T06:04:16;102574.09;;;-3.93;100.00
47670;BME280;33408;52.062;11.722;2023-03-01T06:06:44;102577.59;;;-4.03;100.00
47670;BME280;33408;52.062;11.722;2023-03-01T06:09:10;102582.00;;;-4.00;100.00
47670;BME280;33408;52.062;11.722;2023-03-01T06:11:37;102588.31;;;-4.07;100.00
47670;BME280;33408;52.062;11.722;2023-03-01T06:14:05;102582.47;;;-4.06;100.00
47670;BME280;33408;52.062;11.722;2023-03-01T06:16:33;102579.44;;;-3.88;100.00
47670;BME280;33408;52.062;11.722;2023-03-01T06:18:59;102584.50;;;-3.88;100.00
47670;BME280;33408;52.062;11.722;2023-03-01T06:21:26;102581.34;;;-3.86;100.00
47670;BME280;33408;52.062;11.722;2023-03-01T06:23:54;102582.31;;;-3.83;100.00
47670;BME280;33408;52.062;11.722;2023-03-01T06:26:20;102579.44;;;-3.88;100.00
47670;BME280;33408;52.062;11.722;2023-03-01T06:28:47;102582.63;;;-3.79;100.00
47670;BME280;33408;52.062;11.722;2023-03-01T06:31:14;102577.34;;;-3.82;100.00
47670;BME280;33408;52.062;11.722;2023-03-01T06:33:40;102576.63;;;-3.93;100.00
47670;BME280;33408;52.062;11.722;2023-03-01T06:36:08;102574.06;;;-3.81;100.00
47670;BME280;33408;52.062;11.722;2023-03-01T06:38:35;102576.22;;;-3.74;100.00
47670;BME280;33408;52.062;11.722;2023-03-01T06:41:03;102580.38;;;-3.51;100.00
47670;BME280;33408;52.062;11.722;2023-03-01T06:43:30;102577.78;;;-3.39;100.00
47670;BME280;33408;52.062;11.722;2023-03-01T06:45:57;102575.63;;;-3.46;100.00
47670;BME280;33408;52.062;11.722;2023-03-01T06:48:23;102573.19;;;-3.44;100.00
47670;BME280;33408;52.062;11.722;2023-03-01T06:50:50;102579.13;;;-3.44;100.00
47670;BME280;33408;52.062;11.722;2023-03-01T06:53:17;102584.31;;;-3.17;100.00
47670;BME280;33408;52.062;11.722;2023-03-01T06:55:43;102580.53;;;-3.10;100.00
47670;BME280;33408;52.062;11.722;2023-03-01T06:58:11;102581.25;;;-3.00;100.00
47670;BME280;33408;52.062;11.722;2023-03-01T07:00:38;102581.22;;;-3.13;100.00
47670;BME280;33408;52.062;11.722;2023-03-01T07:03:06;102575.41;;;-2.99;100.00
47670;BME280;33408;52.062;11.722;2023-03-01T07:05:33;102583.94;;;-2.85;100.00
47670;BME280;33408;52.062;11.722;2023-03-01T07:07:59;102576.34;;;-2.71;100.00
47670;BME280;33408;52.062;11.722;2023-03-01T07:10:27;102579.50;;;-2.62;100.00
47670;BME280;33408;52.062;11.722;2023-03-01T07:12:57;102576.66;;;-2.40;100.00
47670;BME280;33408;52.062;11.722;2023-03-01T07:15:26;102573.84;;;-2.31;100.00
47670;BME280;33408;52.062;11.722;2023-03-01T07:17:53;102569.06;;;-2.27;100.00
47670;BME280;33408;52.062;11.722;2023-03-01T07:20:20;102570.63;;;-2.15;100.00
47670;BME280;33408;52.062;11.722;2023-03-01T07:22:49;102563.16;;;-1.99;100.00
47670;BME280;33408;52.062;11.722;2023-03-01T07:25:16;102563.34;;;-1.96;100.00
47670;BME280;33408;52.062;11.722;2023-03-01T07:27:43;102572.19;;;-1.76;100.00
47670;BME280;33408;52.062;11.722;2023-03-01T07:30:10;102571.00;;;-1.68;100.00
47670;BME280;33408;52.062;11.722;2023-03-01T07:32:38;102567.53;;;-1.55;100.00
47670;BME280;33408;52.062;11.722;2023-03-01T07:35:06;102568.72;;;-1.50;100.00
47670;BME280;33408;52.062;11.722;2023-03-01T07:37:32;102578.06;;;-1.35;100.00
47670;BME280;33408;52.062;11.722;2023-03-01T07:39:59;102566.91;;;-0.94;100.00
47670;BME280;33408;52.062;11.722;2023-03-01T07:42:25;102562.16;;;-0.88;100.00
47670;BME280;33408;52.062;11.722;2023-03-01T07:44:52;102556.03;;;-0.77;100.00
47670;BME280;33408;52.062;11.722;2023-03-01T07:47:19;102551.00;;;-0.60;100.00
47670;BME280;33408;52.062;11.722;2023-03-01T07:49:47;102549.06;;;-0.49;100.00
47670;BME280;33408;52.062;11.722;2023-03-01T07:52:13;102549.22;;;-0.31;100.00
47670;BME280;33408;52.062;11.722;2023-03-01T07:54:42;102552.94;;;-0.41;100.00
47670;BME280;33408;52.062;11.722;2023-03-01T07:57:09;102553.88;;;-0.39;100.00
47670;BME280;33408;52.062;11.722;2023-03-01T07:59:36;102562.25;;;-0.42;100.00
47670;BME280;33408;52.062;11.722;2023-03-01T08:02:03;102566.41;;;-0.88;100.00
47670;BME280;33408;52.062;11.722;2023-03-01T08:04:30;102564.88;;;-0.55;100.00
47670;BME280;33408;52.062;11.722;2023-03-01T08:06:58;102563.56;;;-0.63;100.00
47670;BME280;33408;52.062;11.722;2023-03-01T08:09:25;102556.03;;;-0.15;100.00
47670;BME280;33408;52.062;11.722;2023-03-01T08:11:51;102554.88;;;-0.06;100.00
47670;BME280;33408;52.062;11.722;2023-03-01T08:14:19;102560.06;;;-0.04;100.00
47670;BME280;33408;52.062;11.722;2023-03-01T08:16:49;102559.19;;;-0.20;100.00
47670;BME280;33408;52.062;11.722;2023-03-01T08:19:15;102559.94;;;-0.22;100.00
47670;BME280;33408;52.062;11.722;2023-03-01T08:21:42;102560.19;;;-0.32;100.00
47670;BME280;33408;52.062;11.722;2023-03-01T08:24:10;102564.00;;;-0.56;100.00
47670;BME280;33408;52.062;11.722;2023-03-01T08:26:36;102554.31;;;-0.31;100.00
47670;BME280;33408;52.062;11.722;2023-03-01T08:29:03;102567.44;;;-0.40;100.00
47670;BME280;33408;52.062;11.722;2023-03-01T08:31:32;102561.19;;;-0.45;100.00
47670;BME280;33408;52.062;11.722;2023-03-01T08:34:02;102568.75;;;-0.01;100.00
47670;BME280;33408;52.062;11.722;2023-03-01T08:36:30;102563.38;;;0.10;100.00
47670;BME280;33408;52.062;11.722;2023-03-01T08:38:57;102558.09;;;0.07;100.00
47670;BME280;33408;52.062;11.722;2023-03-01T08:41:26;102560.69;;;0.40;100.00
47670;BME280;33408;52.062;11.722;2023-03-01T08:43:53;102566.09;;;0.29;100.00
47670;BME280;33408;52.062;11.722;2023-03-01T08:46:24;102563.38;;;0.43;100.00
47670;BME280;33408;52.062;11.722;2023-03-01T08:48:50;102560.34;;;0.33;100.00
47670;BME280;33408;52.062;11.722;2023-03-01T08:51:18;102553.09;;;0.41;100.00
47670;BME280;33408;52.062;11.722;2023-03-01T08:53:45;102557.47;;;0.77;100.00
47670;BME280;33408;52.062;11.722;2023-03-01T08:56:12;102557.41;;;0.59;100.00
47670;BME280;33408;52.062;11.722;2023-03-01T08:58:43;102548.88;;;1.09;100.00
47670;BME280;33408;52.062;11.722;2023-03-01T09:01:13;102556.56;;;1.27;100.00
47670;BME280;33408;52.062;11.722;2023-03-01T09:03:40;102553.38;;;1.13;100.00
47670;BME280;33408;52.062;11.722;2023-03-01T09:06:07;102544.47;;;1.23;100.00
47670;BME280;33408;52.062;11.722;2023-03-01T09:08:34;102537.19;;;1.67;100.00
47670;BME280;33408;52.062;11.722;2023-03-01T09:11:01;102537.34;;;1.34;100.00
47670;BME280;33408;52.062;11.722;2023-03-01T09:13:28;102541.38;;;1.64;100.00
47670;BME280;33408;52.062;11.722;2023-03-01T09:15:57;102524.47;;;1.86;100.00
47670;BME280;33408;52.062;11.722;2023-03-01T09:18:24;102521.78;;;2.40;100.00
47670;BME280;33408;52.062;11.722;2023-03-01T09:20:51;102525.69;;;2.32;100.00
47670;BME280;33408;52.062;11.722;2023-03-01T09:23:20;102526.16;;;1.86;100.00
47670;BME280;33408;52.062;11.722;2023-03-01T09:25:46;102535.28;;;2.18;100.00
47670;BME280;33408;52.062;11.722;2023-03-01T09:28:13;102525.47;;;1.90;100.00
47670;BME280;33408;52.062;11.722;2023-03-01T09:30:40;102527.00;;;2.24;100.00
47670;BME280;33408;52.062;11.722;2023-03-01T09:33:08;102523.63;;;2.25;100.00
47670;BME280;33408;52.062;11.722;2023-03-01T09:35:39;102519.00;;;2.35;100.00
47670;BME280;33408;52.062;11.722;2023-03-01T09:38:11;102518.94;;;2.53;100.00
47670;BME280;33408;52.062;11.722;2023-03-01T09:40:42;102519.47;;;2.66;100.00
47670;BME280;33408;52.062;11.722;2023-03-01T09:43:13;102522.72;;;2.83;100.00
47670;BME280;33408;52.062;11.722;2023-03-01T09:45:44;102514.00;;;2.99;100.00
47670;BME280;33408;52.062;11.722;2023-03-01T09:48:16;102513.22;;;3.00;100.00
47670;BME280;33408;52.062;11.722;2023-03-01T09:50:44;102516.13;;;3.09;100.00
47670;BME280;33408;52.062;11.722;2023-03-01T09:53:15;102514.66;;;3.14;98.84
47670;BME280;33408;52.062;11.722;2023-03-01T09:55:44;102505.00;;;3.29;96.08
47670;BME280;33408;52.062;11.722;2023-03-01T09:58:28;102507.91;;;3.60;92.31
47670;BME280;33408;52.062;11.722;2023-03-01T10:00:59;102506.75;;;3.31;89.71
47670;BME280;33408;52.062;11.722;2023-03-01T10:03:34;102515.03;;;3.46;89.34
47670;BME280;33408;52.062;11.722;2023-03-01T10:06:08;102507.50;;;3.72;87.81
47670;BME280;33408;52.062;11.722;2023-03-01T10:08:36;102508.44;;;3.74;85.78
47670;BME280;33408;52.062;11.722;2023-03-01T10:11:18;102509.50;;;3.79;85.74
47670;BME280;33408;52.062;11.722;2023-03-01T10:13:50;102511.75;;;3.71;83.74
47670;BME280;33408;52.062;11.722;2023-03-01T10:16:22;102503.69;;;3.84;82.82
47670;BME280;33408;52.062;11.722;2023-03-01T10:18:55;102503.47;;;4.01;78.19
47670;BME280;33408;52.062;11.722;2023-03-01T10:21:26;102502.72;;;4.04;74.17
47670;BME280;33408;52.062;11.722;2023-03-01T10:23:53;102494.31;;;4.08;73.56
47670;BME280;33408;52.062;11.722;2023-03-01T10:26:33;102499.50;;;4.09;75.38
47670;BME280;33408;52.062;11.722;2023-03-01T10:29:05;102491.25;;;4.18;70.13
47670;BME280;33408;52.062;11.722;2023-03-01T10:31:39;102490.28;;;4.38;70.91
47670;BME280;33408;52.062;11.722;2023-03-01T10:34:13;102488.09;;;4.49;69.21
47670;BME280;33408;52.062;11.722;2023-03-01T10:36:41;102485.91;;;4.36;68.79
47670;BME280;33408;52.062;11.722;2023-03-01T10:39:13;102479.78;;;4.32;69.84
47670;BME280;33408;52.062;11.722;2023-03-01T10:41:53;102476.78;;;4.70;70.16
47670;BME280;33408;52.062;11.722;2023-03-01T10:44:42;102474.88;;;4.14;72.43
47670;BME280;33408;52.062;11.722;2023-03-01T10:47:15;102470.59;;;4.15;72.71
47670;BME280;33408;52.062;11.722;2023-03-01T10:49:54;102473.44;;;4.47;69.38
47670;BME280;33408;52.062;11.722;2023-03-01T10:52:23;102465.69;;;4.45;70.75
47670;BME280;33408;52.062;11.722;2023-03-01T10:54:52;102459.47;;;4.38;71.06
47670;BME280;33408;52.062;11.722;2023-03-01T10:57:43;102450.97;;;4.40;71.77
47670;BME280;33408;52.062;11.722;2023-03-01T11:00:20;102462.16;;;4.42;71.36
47670;BME280;33408;52.062;11.722;2023-03-01T11:02:48;102450.84;;;4.36;71.38
47670;BME280;33408;52.062;11.722;2023-03-01T11:05:24;102452.69;;;4.66;72.31
47670;BME280;33408;52.062;11.722;2023-03-01T11:07:52;102449.53;;;4.48;71.11
47670;BME280;33408;52.062;11.722;2023-03-01T11:10:22;102439.47;;;4.30;71.75
47670;BME280;33408;52.062;11.722;2023-03-01T11:12:51;102443.28;;;4.41;71.32
47670;BME280;33408;52.062;11.722;2023-03-01T11:15:26;102444.69;;;4.57;69.71
47670;BME280;33408;52.062;11.722;2023-03-01T11:17:53;102437.81;;;4.56;68.43
47670;BME280;33408;52.062;11.722;2023-03-01T11:20:27;102432.09;;;4.65;68.02
47670;BME280;33408;52.062;11.722;2023-03-01T11:22:59;102434.00;;;4.96;68.17
47670;BME280;33408;52.062;11.722;2023-03-01T11:25:27;102435.50;;;4.64;67.86
47670;BME280;33408;52.062;11.722;2023-03-01T11:27:55;102437.88;;;4.83;70.30
47670;BME280;33408;52.062;11.722;2023-03-01T11:30:26;102437.25;;;4.65;69.18
47670;BME280;33408;52.062;11.722;2023-03-01T11:33:03;102435.69;;;4.70;70.28
47670;BME280;33408;52.062;11.722;2023-03-01T11:35:34;102440.06;;;4.72;70.02
47670;BME280;33408;52.062;11.722;2023-03-01T11:38:12;102440.84;;;4.97;70.00
47670;BME280;33408;52.062;11.722;2023-03-01T11:40:45;102434.22;;;4.77;68.59
47670;BME280;33408;52.062;11.722;2023-03-01T11:43:19;102430.34;;;4.89;68.29
47670;BME280;33408;52.062;11.722;2023-03-01T11:49:16;102421.34;;;5.31;67.42
47670;BME280;33408;52.062;11.722;2023-03-01T11:51:50;102413.53;;;4.99;65.74
47670;BME280;33408;52.062;11.722;2023-03-01T11:54:27;102413.66;;;5.04;64.58
47670;BME280;33408;52.062;11.722;2023-03-01T11:57:02;102406.38;;;5.18;64.83
47670;BME280;33408;52.062;11.722;2023-03-01T11:59:51;102404.88;;;5.24;62.39
47670;BME280;33408;52.062;11.722;2023-03-01T12:02:43;102402.47;;;5.30;63.59
47670;BME280;33408;52.062;11.722;2023-03-01T12:05:36;102400.06;;;5.35;62.28
47670;BME280;33408;52.062;11.722;2023-03-01T12:08:15;102405.25;;;5.37;62.65
47670;BME280;33408;52.062;11.722;2023-03-01T12:10:50;102398.16;;;5.29;61.41
47670;BME280;33408;52.062;11.722;2023-03-01T12:13:48;102394.16;;;5.39;61.88
47670;BME280;33408;52.062;11.722;2023-03-01T12:16:30;102390.03;;;5.73;61.06
47670;BME280;33408;52.062;11.722;2023-03-01T12:19:15;102390.38;;;5.57;59.55
47670;BME280;33408;52.062;11.722;2023-03-01T12:21:58;102383.13;;;5.72;59.42
47670;BME280;33408;52.062;11.722;2023-03-01T12:25:01;102389.44;;;5.53;58.69
47670;BME280;33408;52.062;11.722;2023-03-01T12:27:45;102380.75;;;5.50;57.79
47670;BME280;33408;52.062;11.722;2023-03-01T12:30:28;102377.97;;;5.72;58.59
47670;BME280;33408;52.062;11.722;2023-03-01T12:33:08;102380.06;;;5.55;57.76
47670;BME280;33408;52.062;11.722;2023-03-01T12:35:50;102379.41;;;5.62;58.75
47670;BME280;33408;52.062;11.722;2023-03-01T12:38:31;102374.81;;;5.82;57.92
47670;BME280;33408;52.062;11.722;2023-03-01T12:41:20;102365.66;;;5.60;55.67
47670;BME280;33408;52.062;11.722;2023-03-01T12:44:01;102363.03;;;5.91;57.23
47670;BME280;33408;52.062;11.722;2023-03-01T12:46:39;102354.91;;;5.75;56.57
47670;BME280;33408;52.062;11.722;2023-03-01T12:49:15;102354.28;;;5.84;57.22
47670;BME280;33408;52.062;11.722;2023-03-01T12:51:46;102341.78;;;5.96;56.34
47670;BME280;33408;52.062;11.722;2023-03-01T12:54:22;102344.44;;;5.99;54.84